Time;durP1;ratioP1;P1;durP2;ratioP2;P2;SDS_P1;SDS_P2;PMS_P1;PMS_P2;Temp;Humidity;BMP_temperature;BMP_pressure;BME280_temperature;BME280_humidity;BME280_pressure;Samples;Min_cycle;Max_cycle;Signal;HPM_P1;HPM_P2
2022/06/03 00:02:11;;;;;;;7.75;4.35;;;;;;;;;;5018279;28;20542;-45
2022/06/03 00:04:38;;;;;;;9.80;5.22;;;;;;;;;;5018612;28;20214;-45
2022/06/03 00:07:42;;;;;;;6.35;5.13;;;;;;;;;;5018299;28;20686;-45
2022/06/03 00:10:28;;;;;;;9.07;5.18;;;;;;;;;;5018463;28;20209;-45
2022/06/03 00:13:01;;;;;;;12.10;5.72;;;;;;;;;;5018155;28;20612;-45
2022/06/03 00:15:49;;;;;;;11.45;4.38;;;;;;;;;;5017581;28;20321;-45
2022/06/03 00:18:35;;;;;;;4.57;3.72;;;;;;;;;;5018782;28;20181;-45
2022/06/03 00:21:07;;;;;;;9.75;3.90;;;;;;;;;;5017924;28;20534;-46
2022/06/03 00:23:49;;;;;;;13.60;3.75;;;;;;;;;;5017430;28;20276;-47
2022/06/03 00:26:37;;;;;;;7.18;3.95;;;;;;;;;;5018524;28;20200;-46
2022/06/03 00:29:22;;;;;;;5.53;3.22;;;;;;;;;;5018205;28;20226;-46
2022/06/03 00:31:56;;;;;;;7.38;3.42;;;;;;;;;;5018430;28;20209;-45
2022/06/03 00:35:01;;;;;;;8.15;2.60;;;;;;;;;;5018410;28;20510;-47
2022/06/03 00:37:31;;;;;;;9.02;2.97;;;;;;;;;;5011501;28;20213;-48
2022/06/03 00:40:19;;;;;;;7.72;2.70;;;;;;;;;;5016852;28;20236;-45
2022/06/03 00:43:34;;;;;;;2.83;2.42;;;;;;;;;;5000912;28;20209;-45
2022/06/03 00:46:13;;;;;;;8.98;3.38;;;;;;;;;;4987163;28;20652;-45
2022/06/03 00:48:49;;;;;;;8.13;3.30;;;;;;;;;;5018276;28;20233;-45
2022/06/03 00:51:54;;;;;;;6.78;4.00;;;;;;;;;;5016912;28;20205;-45
2022/06/03 00:54:44;;;;;;;6.30;4.18;;;;;;;;;;4976654;28;20226;-45
2022/06/03 00:57:28;;;;;;;5.10;4.00;;;;;;;;;;5015682;28;20202;-45
2022/06/03 01:00:03;;;;;;;6.32;4.72;;;;;;;;;;5017258;28;20197;-46
2022/06/03 01:03:08;;;;;;;8.73;4.30;;;;;;;;;;5017369;28;20216;-45
2022/06/03 01:05:49;;;;;;;6.93;3.78;;;;;;;;;;4976050;28;20206;-45
2022/06/03 01:08:40;;;;;;;6.55;3.78;;;;;;;;;;4960820;28;20329;-47
2022/06/03 01:11:45;;;;;;;9.27;3.70;;;;;;;;;;4976729;28;20517;-46
2022/06/03 01:15:00;;;;;;;4.38;3.35;;;;;;;;;;4976491;28;20289;-45
2022/06/03 01:17:33;;;;;;;7.97;3.25;;;;;;;;;;4933699;28;20211;-45
2022/06/03 01:20:03;;;;;;;4.85;2.90;;;;;;;;;;4976777;28;20215;-45
2022/06/03 01:22:39;;;;;;;5.55;3.20;;;;;;;;;;4976494;28;20214;-45
2022/06/03 01:25:24;;;;;;;5.28;2.85;;;;;;;;;;4976397;28;20202;-45
2022/06/03 01:28:22;;;;;;;8.00;3.50;;;;;;;;;;4976255;28;20210;-45
2022/06/03 01:31:22;;;;;;;7.25;3.33;;;;;;;;;;4975887;28;20198;-46
2022/06/03 01:33:57;;;;;;;6.88;3.60;;;;;;;;;;4975758;28;20289;-45
2022/06/03 01:36:43;;;;;;;5.03;3.65;;;;;;;;;;4976173;28;20195;-45
2022/06/03 01:39:30;;;;;;;5.10;3.15;;;;;;;;;;4989306;28;20213;-45
2022/06/03 01:42:15;;;;;;;6.53;4.07;;;;;;;;;;5015298;28;20205;-46
2022/06/03 01:44:48;;;;;;;7.90;4.10;;;;;;;;;;5016503;28;20503;-45
2022/06/03 01:47:21;;;;;;;8.65;4.28;;;;;;;;;;5016227;28;20201;-46
2022/06/03 01:50:03;;;;;;;7.68;4.32;;;;;;;;;;5016347;28;20225;-48
2022/06/03 01:52:50;;;;;;;5.95;4.60;;;;;;;;;;5016001;28;20684;-45
2022/06/03 01:55:18;;;;;;;5.82;3.97;;;;;;;;;;5015592;28;20193;-45
2022/06/03 01:58:14;;;;;;;7.18;4.20;;;;;;;;;;5015972;28;20219;-46
2022/06/03 02:00:50;;;;;;;8.63;3.85;;;;;;;;;;4975316;28;20203;-45
2022/06/03 02:03:30;;;;;;;5.75;3.22;;;;;;;;;;4991355;28;20202;-45
2022/06/03 02:06:18;;;;;;;3.53;3.17;;;;;;;;;;4974984;28;20213;-45
2022/06/03 02:09:00;;;;;;;9.13;3.45;;;;;;;;;;4959194;28;20218;-45
2022/06/03 02:11:56;;;;;;;5.07;3.70;;;;;;;;;;4975257;28;20210;-46
2022/06/03 02:14:41;;;;;;;6.57;3.97;;;;;;;;;;4975124;28;20229;-48
2022/06/03 02:17:23;;;;;;;4.75;3.42;;;;;;;;;;4959157;28;20217;-45
2022/06/03 02:20:46;;;;;;;7.50;4.05;;;;;;;;;;4974892;28;20342;-45
2022/06/03 02:23:31;;;;;;;5.93;4.68;;;;;;;;;;4895345;29;20212;-46
2022/06/03 02:26:13;;;;;;;10.38;4.88;;;;;;;;;;4974730;28;20210;-49
2022/06/03 02:32:56;;;;;;;11.20;5.30;;;;;;;;;;4974581;28;20276;-45
2022/06/03 02:35:42;;;;;;;6.28;5.53;;;;;;;;;;4917060;29;20204;-45
2022/06/03 02:38:27;;;;;;;9.00;6.30;;;;;;;;;;4934684;29;20627;-45
2022/06/03 02:41:28;;;;;;;6.88;3.22;;;;;;;;;;4936473;29;20192;-45
2022/06/03 02:44:32;;;;;;;4.38;3.10;;;;;;;;;;4936305;29;20204;-45
2022/06/03 02:47:24;;;;;;;6.10;3.40;;;;;;;;;;4936541;29;20204;-45
2022/06/03 02:50:42;;;;;;;3.85;2.80;;;;;;;;;;4936046;29;20279;-45
2022/06/03 02:53:31;;;;;;;5.25;2.80;;;;;;;;;;4928350;29;20204;-46
2022/06/03 02:56:35;;;;;;;4.93;3.28;;;;;;;;;;4936306;29;20216;-45
2022/06/03 02:59:24;;;;;;;5.03;3.17;;;;;;;;;;4936261;29;20259;-47
2022/06/03 03:02:09;;;;;;;7.65;3.08;;;;;;;;;;4920665;29;20295;-45
2022/06/03 03:04:55;;;;;;;3.67;3.10;;;;;;;;;;4936168;29;20211;-45
2022/06/03 03:07:32;;;;;;;6.38;3.67;;;;;;;;;;4935260;29;20235;-46
2022/06/03 03:10:33;;;;;;;8.38;3.58;;;;;;;;;;4924520;28;20235;-47
2022/06/03 03:13:09;;;;;;;4.75;3.63;;;;;;;;;;5015300;28;20192;-45
2022/06/03 03:15:59;;;;;;;7.60;3.25;;;;;;;;;;5047200;28;20201;-46
2022/06/03 03:18:54;;;;;;;3.10;1.80;;;;;;;;;;5014084;28;20612;-46
2022/06/03 03:21:21;;;;;;;4.55;3.90;;;;;;;;;;5015176;28;20216;-46
2022/06/03 03:24:09;;;;;;;7.05;4.10;;;;;;;;;;5015198;28;20197;-45
2022/06/03 03:26:53;;;;;;;7.45;4.03;;;;;;;;;;5015106;28;20197;-48
2022/06/03 03:29:42;;;;;;;6.18;5.10;;;;;;;;;;5015714;28;20304;-46
2022/06/03 03:32:42;;;;;;;8.52;6.30;;;;;;;;;;5027116;28;20198;-45
2022/06/03 03:35:15;;;;;;;10.85;5.88;;;;;;;;;;5004736;28;20268;-45
2022/06/03 03:37:55;;;;;;;13.02;5.53;;;;;;;;;;5005361;28;20195;-45
2022/06/03 03:40:47;;;;;;;7.80;5.50;;;;;;;;;;5034176;28;20209;-47
2022/06/03 03:43:46;;;;;;;8.68;5.72;;;;;;;;;;5013495;28;20208;-45
2022/06/03 03:46:35;;;;;;;9.48;5.68;;;;;;;;;;5022763;28;20636;-45
2022/06/03 03:49:21;;;;;;;8.32;5.43;;;;;;;;;;5007176;28;20228;-46
2022/06/03 03:52:22;;;;;;;9.20;6.20;;;;;;;;;;5015380;28;20261;-46
2022/06/03 03:54:55;;;;;;;10.00;5.65;;;;;;;;;;5014045;28;20208;-45
2022/06/03 03:57:37;;;;;;;6.90;6.05;;;;;;;;;;5014471;28;20229;-45
2022/06/03 04:00:25;;;;;;;10.20;6.43;;;;;;;;;;5015378;28;20205;-49
2022/06/03 04:03:17;;;;;;;10.88;7.93;;;;;;;;;;5018178;28;20248;-45
2022/06/03 04:06:01;;;;;;;12.38;7.25;;;;;;;;;;5006471;28;20296;-47
2022/06/03 04:08:59;;;;;;;10.13;6.90;;;;;;;;;;5025546;28;20222;-46
2022/06/03 04:11:35;;;;;;;8.85;7.47;;;;;;;;;;5005458;28;20222;-50
2022/06/03 04:14:21;;;;;;;10.68;7.60;;;;;;;;;;5012051;28;20697;-46
2022/06/03 04:17:16;;;;;;;9.88;8.85;;;;;;;;;;5017510;28;20247;-45
2022/06/03 04:19:52;;;;;;;12.75;8.45;;;;;;;;;;5036762;28;20221;-45
2022/06/03 04:22:41;;;;;;;8.82;7.72;;;;;;;;;;5024284;28;20236;-45
2022/06/03 04:25:31;;;;;;;13.57;8.30;;;;;;;;;;5016404;28;20236;-46
2022/06/03 04:28:07;;;;;;;10.75;8.05;;;;;;;;;;5016528;28;20691;-47
2022/06/03 04:31:22;;;;;;;8.48;7.65;;;;;;;;;;5017186;28;20291;-45
2022/06/03 04:34:21;;;;;;;12.43;8.68;;;;;;;;;;4981416;28;20270;-45
2022/06/03 04:37:41;;;;;;;9.27;7.80;;;;;;;;;;5003514;28;20253;-46
2022/06/03 04:40:39;;;;;;;11.07;8.32;;;;;;;;;;5016408;28;20244;-46
2022/06/03 04:43:12;;;;;;;10.85;9.02;;;;;;;;;;5016677;28;20236;-45
2022/06/03 04:46:26;;;;;;;10.05;8.75;;;;;;;;;;5017116;28;20236;-45
2022/06/03 04:49:02;;;;;;;10.35;8.77;;;;;;;;;;4997117;28;20222;-44
2022/06/03 04:51:53;;;;;;;11.50;8.55;;;;;;;;;;4996852;28;20248;-45
2022/06/03 04:54:47;;;;;;;9.40;8.43;;;;;;;;;;4996562;28;20508;-44
2022/06/03 04:58:07;;;;;;;11.38;8.38;;;;;;;;;;4997151;28;20234;-46
2022/06/03 05:00:36;;;;;;;8.63;6.65;;;;;;;;;;4981812;28;20233;-45
2022/06/03 05:03:25;;;;;;;8.93;6.15;;;;;;;;;;4997334;28;20234;-48
2022/06/03 05:06:22;;;;;;;9.43;5.70;;;;;;;;;;4997053;28;20304;-45
2022/06/03 05:09:08;;;;;;;8.07;6.28;;;;;;;;;;4996140;28;20234;-47
2022/06/03 05:12:06;;;;;;;9.50;5.70;;;;;;;;;;5001602;28;20213;-45
2022/06/03 05:14:52;;;;;;;9.07;5.47;;;;;;;;;;5013355;28;20687;-44
2022/06/03 05:17:48;;;;;;;10.32;5.78;;;;;;;;;;5012084;28;20260;-45
2022/06/03 05:20:30;;;;;;;7.30;5.90;;;;;;;;;;5012781;28;20237;-45
2022/06/03 05:22:59;;;;;;;10.05;5.55;;;;;;;;;;5013182;28;20348;-51
2022/06/03 05:25:57;;;;;;;7.20;5.55;;;;;;;;;;5014369;28;20221;-45
2022/06/03 05:28:36;;;;;;;7.30;4.82;;;;;;;;;;5011302;28;20257;-45
2022/06/03 05:31:22;;;;;;;7.10;5.00;;;;;;;;;;5012309;28;20233;-45
2022/06/03 05:34:14;;;;;;;8.65;5.10;;;;;;;;;;5014391;28;20361;-47
2022/06/03 05:36:53;;;;;;;9.70;4.85;;;;;;;;;;4996819;28;20245;-44
2022/06/03 05:39:39;;;;;;;8.10;4.65;;;;;;;;;;4996383;28;20234;-44
2022/06/03 05:42:24;;;;;;;5.53;4.30;;;;;;;;;;4996955;28;20290;-44
2022/06/03 05:45:12;;;;;;;4.40;4.00;;;;;;;;;;4997513;28;20216;-44
2022/06/03 05:48:09;;;;;;;9.13;3.92;;;;;;;;;;4997102;28;20213;-47
2022/06/03 05:50:58;;;;;;;3.97;3.30;;;;;;;;;;4987524;28;20557;-45
2022/06/03 05:53:33;;;;;;;4.72;3.60;;;;;;;;;;4997003;28;20210;-45
2022/06/03 05:56:16;;;;;;;3.88;2.42;;;;;;;;;;4996867;28;20201;-45
2022/06/03 05:58:58;;;;;;;0.93;0.80;;;;;;;;;;4996614;28;20533;-46
2022/06/03 06:01:44;;;;;;;2.97;0.95;;;;;;;;;;5011951;28;20535;-44
2022/06/03 06:04:34;;;;;;;2.63;1.63;;;;;;;;;;4996971;28;20194;-45
2022/06/03 06:07:29;;;;;;;3.13;2.63;;;;;;;;;;5011965;28;20683;-46
2022/06/03 06:10:16;;;;;;;3.22;2.55;;;;;;;;;;5016007;28;20384;-45
2022/06/03 06:13:01;;;;;;;3.67;2.60;;;;;;;;;;5016549;28;20208;-45
2022/06/03 06:15:58;;;;;;;3.58;2.20;;;;;;;;;;5015383;28;20209;-45
2022/06/03 06:18:50;;;;;;;2.88;2.65;;;;;;;;;;5015414;28;20205;-46
2022/06/03 06:21:23;;;;;;;4.75;2.30;;;;;;;;;;5015851;28;20210;-45
2022/06/03 06:23:56;;;;;;;4.43;2.72;;;;;;;;;;5015923;28;20534;-45
2022/06/03 06:26:45;;;;;;;2.72;2.40;;;;;;;;;;5015829;28;20275;-45
2022/06/03 06:29:18;;;;;;;3.67;2.60;;;;;;;;;;5015868;28;20248;-45
2022/06/03 06:32:13;;;;;;;2.95;2.45;;;;;;;;;;5015855;28;20190;-45
2022/06/03 06:35:11;;;;;;;2.38;2.17;;;;;;;;;;5015929;28;20212;-45
2022/06/03 06:38:07;;;;;;;3.33;2.30;;;;;;;;;;5016006;28;20201;-45
2022/06/03 06:41:15;;;;;;;3.38;2.10;;;;;;;;;;5015873;28;20213;-45
2022/06/03 06:44:09;;;;;;;3.58;2.10;;;;;;;;;;4955347;29;20673;-45
2022/06/03 06:47:10;;;;;;;2.58;2.30;;;;;;;;;;4955480;29;20207;-45
2022/06/03 06:49:45;;;;;;;2.63;2.25;;;;;;;;;;4936445;29;20235;-45
2022/06/03 06:52:39;;;;;;;3.15;2.33;;;;;;;;;;4936200;29;20307;-45
2022/06/03 06:55:22;;;;;;;2.60;1.95;;;;;;;;;;4936480;29;20231;-45
2022/06/03 06:57:51;;;;;;;2.10;1.90;;;;;;;;;;4936618;29;20200;-45
2022/06/03 07:00:22;;;;;;;2.55;1.80;;;;;;;;;;4936245;29;20227;-45
2022/06/03 07:03:11;;;;;;;3.10;2.30;;;;;;;;;;4951702;29;20724;-45
2022/06/03 07:05:50;;;;;;;3.22;1.90;;;;;;;;;;4952048;29;20651;-45
2022/06/03 07:08:42;;;;;;;2.25;2.03;;;;;;;;;;4936600;29;20204;-45
2022/06/03 07:11:14;;;;;;;3.65;2.00;;;;;;;;;;4936057;29;20232;-45
2022/06/03 07:14:10;;;;;;;2.53;1.90;;;;;;;;;;4951805;29;20188;-45
2022/06/03 07:19:48;;;;;;;4.15;1.88;;;;;;;;;;4995637;28;20221;-45
2022/06/03 07:22:32;;;;;;;2.67;2.20;;;;;;;;;;4995991;28;20535;-44
2022/06/03 07:25:04;;;;;;;3.67;1.70;;;;;;;;;;4994756;28;20201;-44
2022/06/03 07:27:43;;;;;;;4.40;2.38;;;;;;;;;;4995747;28;20221;-44
2022/06/03 07:30:14;;;;;;;3.05;2.20;;;;;;;;;;4995245;28;20283;-45
2022/06/03 07:32:45;;;;;;;1.90;1.67;;;;;;;;;;4995699;28;20217;-46
2022/06/03 07:35:24;;;;;;;3.63;1.88;;;;;;;;;;5026573;28;20190;-45
2022/06/03 07:38:20;;;;;;;3.53;1.92;;;;;;;;;;4994657;28;20213;-44
2022/06/03 07:40:59;;;;;;;3.80;1.90;;;;;;;;;;4995399;28;20218;-45
2022/06/03 07:43:48;;;;;;;2.72;1.70;;;;;;;;;;4995561;28;20178;-45
2022/06/03 07:46:24;;;;;;;1.98;1.73;;;;;;;;;;5027045;28;20268;-45
2022/06/03 07:48:52;;;;;;;2.55;2.15;;;;;;;;;;4994181;28;20209;-45
2022/06/03 07:51:31;;;;;;;2.45;2.10;;;;;;;;;;4994399;28;20230;-45
2022/06/03 07:54:03;;;;;;;7.25;1.85;;;;;;;;;;4997069;28;20699;-45
2022/06/03 07:56:33;;;;;;;2.15;1.75;;;;;;;;;;4999360;28;20202;-44
2022/06/03 07:59:07;;;;;;;2.50;2.00;;;;;;;;;;4998271;28;20209;-45
2022/06/03 08:01:37;;;;;;;4.43;2.15;;;;;;;;;;4998895;28;20305;-45
2022/06/03 08:04:05;;;;;;;2.45;2.17;;;;;;;;;;4998731;28;20206;-44
2022/06/03 08:12:38;;;;;;;2.50;1.90;;;;;;;;;;4958303;29;20238;-44
2022/06/03 08:15:15;;;;;;;2.88;1.98;;;;;;;;;;4986741;28;20198;-45
2022/06/03 08:17:45;;;;;;;2.03;1.73;;;;;;;;;;4998988;28;20209;-44
2022/06/03 08:20:14;;;;;;;4.85;2.00;;;;;;;;;;4998631;28;20217;-44
2022/06/03 08:22:41;;;;;;;2.10;1.90;;;;;;;;;;4998565;28;20229;-44
2022/06/03 08:25:08;;;;;;;3.28;2.15;;;;;;;;;;4999231;28;20206;-44
2022/06/03 08:27:36;;;;;;;3.67;2.53;;;;;;;;;;4998511;28;20210;-45
2022/06/03 08:30:07;;;;;;;3.28;2.70;;;;;;;;;;4998385;28;20230;-45
2022/06/03 08:32:45;;;;;;;6.35;2.10;;;;;;;;;;4997715;28;20202;-44
2022/06/03 08:35:24;;;;;;;2.78;2.08;;;;;;;;;;4997457;28;20629;-44
2022/06/03 08:38:20;;;;;;;2.72;2.10;;;;;;;;;;4997831;28;20256;-46
2022/06/03 08:40:47;;;;;;;2.67;2.00;;;;;;;;;;4995425;28;20292;-44
2022/06/03 08:43:22;;;;;;;3.08;2.08;;;;;;;;;;4997967;28;20229;-44
2022/06/03 08:46:00;;;;;;;2.53;2.20;;;;;;;;;;5030685;28;20217;-45
2022/06/03 08:48:34;;;;;;;3.25;2.58;;;;;;;;;;5029413;28;20226;-45
2022/06/03 08:51:06;;;;;;;3.95;2.50;;;;;;;;;;4997048;28;20668;-44
2022/06/03 08:53:46;;;;;;;6.10;1.95;;;;;;;;;;4997023;28;20289;-44
2022/06/03 08:56:20;;;;;;;3.33;1.67;;;;;;;;;;5029678;28;20595;-44
2022/06/03 08:58:57;;;;;;;2.38;2.17;;;;;;;;;;4997395;28;20237;-45
2022/06/03 09:01:42;;;;;;;3.00;2.25;;;;;;;;;;4997707;28;20222;-44
2022/06/03 09:04:22;;;;;;;5.28;2.17;;;;;;;;;;4997434;28;20221;-44
2022/06/03 09:06:58;;;;;;;3.22;2.38;;;;;;;;;;4997342;28;20238;-44
2022/06/03 09:09:50;;;;;;;2.63;2.08;;;;;;;;;;4997935;28;20190;-45
2022/06/03 09:12:25;;;;;;;2.47;2.10;;;;;;;;;;5029086;28;20191;-47
2022/06/03 09:14:52;;;;;;;2.85;1.70;;;;;;;;;;4997586;28;20203;-46
2022/06/03 09:17:22;;;;;;;3.67;2.42;;;;;;;;;;4997084;28;20260;-45
2022/06/03 09:19:51;;;;;;;4.80;2.88;;;;;;;;;;4997260;28;20186;-44
2022/06/03 09:22:24;;;;;;;4.60;2.65;;;;;;;;;;4996661;28;20206;-45
2022/06/03 09:24:55;;;;;;;4.60;2.40;;;;;;;;;;4996712;28;20194;-44
2022/06/03 09:27:22;;;;;;;4.03;2.20;;;;;;;;;;4997163;28;20269;-44
2022/06/03 09:29:54;;;;;;;2.75;2.17;;;;;;;;;;4997532;28;20209;-45
2022/06/03 09:32:23;;;;;;;2.95;2.35;;;;;;;;;;4996498;28;20212;-44
2022/06/03 09:34:53;;;;;;;3.22;2.67;;;;;;;;;;4996236;28;20256;-45
2022/06/03 09:37:24;;;;;;;3.60;1.90;;;;;;;;;;4997377;28;20194;-45
2022/06/03 09:39:52;;;;;;;3.80;2.33;;;;;;;;;;5029479;28;20235;-44
2022/06/03 09:42:21;;;;;;;3.35;2.30;;;;;;;;;;5028838;28;20268;-45
2022/06/03 09:44:50;;;;;;;2.60;2.28;;;;;;;;;;5029022;28;20198;-46
2022/06/03 09:47:20;;;;;;;3.58;2.45;;;;;;;;;;4980436;28;20214;-44
2022/06/03 09:49:50;;;;;;;2.47;2.20;;;;;;;;;;4996187;28;20268;-45
2022/06/03 09:52:20;;;;;;;5.65;2.10;;;;;;;;;;4997185;28;20226;-44
2022/06/03 09:54:47;;;;;;;3.63;2.25;;;;;;;;;;4997156;28;20217;-47
2022/06/03 09:57:33;;;;;;;2.85;2.10;;;;;;;;;;5028495;28;20210;-45
2022/06/03 10:00:08;;;;;;;4.07;2.30;;;;;;;;;;4997060;28;20210;-44
2022/06/03 10:02:44;;;;;;;2.80;2.10;;;;;;;;;;4996571;28;20613;-45
2022/06/03 10:05:16;;;;;;;3.38;2.47;;;;;;;;;;4995773;28;20209;-44
2022/06/03 10:07:44;;;;;;;2.53;2.22;;;;;;;;;;4996952;28;20237;-44
2022/06/03 10:13:04;;;;;;;2.92;1.98;;;;;;;;;;4995944;28;20211;-45
2022/06/03 10:15:38;;;;;;;1.95;1.75;;;;;;;;;;4996008;28;20641;-44
2022/06/03 10:18:33;;;;;;;2.15;1.95;;;;;;;;;;4996583;28;20619;-45
2022/06/03 10:21:06;;;;;;;2.70;2.03;;;;;;;;;;4995446;28;20289;-45
2022/06/03 10:23:36;;;;;;;2.38;1.58;;;;;;;;;;4996729;28;20198;-44
2022/06/03 10:26:26;;;;;;;3.58;1.50;;;;;;;;;;4996700;28;20213;-44
2022/06/03 10:28:55;;;;;;;4.03;1.50;;;;;;;;;;4996150;28;20190;-44
2022/06/03 10:31:33;;;;;;;3.20;1.40;;;;;;;;;;4996163;28;20222;-45
2022/06/03 10:34:10;;;;;;;2.03;1.48;;;;;;;;;;4996502;28;20190;-44
2022/06/03 10:36:45;;;;;;;2.80;1.92;;;;;;;;;;4996681;28;20256;-45
2022/06/03 10:39:15;;;;;;;2.75;1.60;;;;;;;;;;4996064;28;20260;-45
2022/06/03 10:41:48;;;;;;;2.22;1.73;;;;;;;;;;4996336;28;20205;-44
2022/06/03 10:44:21;;;;;;;3.28;1.48;;;;;;;;;;4996216;28;20242;-47
2022/06/03 10:46:59;;;;;;;1.80;1.58;;;;;;;;;;4996538;28;20198;-44
2022/06/03 10:49:28;;;;;;;1.80;1.33;;;;;;;;;;4996122;28;20190;-45
2022/06/03 11:03:07;;;;;;;1.35;1.10;;;;;;;;;;4996446;28;20206;-44
2022/06/03 11:05:37;;;;;;;1.30;1.10;;;;;;;;;;4995215;28;20205;-44
2022/06/03 11:08:05;;;;;;;2.03;1.42;;;;;;;;;;4995718;28;20238;-44
2022/06/03 11:10:39;;;;;;;3.55;1.15;;;;;;;;;;4995514;28;20213;-44
2022/06/03 11:13:15;;;;;;;1.77;1.15;;;;;;;;;;4995548;28;20641;-45
2022/06/03 11:15:47;;;;;;;3.15;1.10;;;;;;;;;;4995480;28;20560;-44
2022/06/03 11:18:16;;;;;;;3.80;1.27;;;;;;;;;;4995826;28;20206;-45
2022/06/03 11:20:46;;;;;;;1.85;1.50;;;;;;;;;;4995944;28;20293;-45
2022/06/03 11:23:14;;;;;;;1.83;1.25;;;;;;;;;;4995363;28;20202;-44
2022/06/03 11:25:53;;;;;;;3.00;1.50;;;;;;;;;;5026729;28;20653;-44
2022/06/03 11:28:28;;;;;;;2.38;1.35;;;;;;;;;;4995099;28;20201;-44
2022/06/03 11:31:25;;;;;;;4.25;1.50;;;;;;;;;;5022801;28;20230;-44
2022/06/03 11:34:02;;;;;;;2.92;1.60;;;;;;;;;;4995314;28;20226;-46
2022/06/03 11:36:36;;;;;;;3.60;1.50;;;;;;;;;;5027013;28;20617;-45
2022/06/03 11:39:09;;;;;;;2.25;1.52;;;;;;;;;;4995617;28;20194;-44
2022/06/03 11:41:48;;;;;;;2.17;1.25;;;;;;;;;;4995626;28;20221;-45
2022/06/03 11:44:33;;;;;;;1.92;1.15;;;;;;;;;;5004186;28;20523;-44
2022/06/03 11:47:06;;;;;;;3.50;1.40;;;;;;;;;;4993992;28;20252;-45
2022/06/03 11:49:33;;;;;;;6.50;1.42;;;;;;;;;;4993460;28;20240;-48
2022/06/03 11:52:07;;;;;;;3.85;1.08;;;;;;;;;;4994414;28;20286;-44
2022/06/03 11:54:36;;;;;;;2.15;1.02;;;;;;;;;;4994253;28;20233;-46
2022/06/03 11:57:03;;;;;;;1.98;1.05;;;;;;;;;;5013134;28;20236;-44
2022/06/03 11:59:50;;;;;;;1.40;1.20;;;;;;;;;;5013471;28;20260;-45
2022/06/03 12:02:24;;;;;;;1.92;1.20;;;;;;;;;;5011430;28;20728;-45
2022/06/03 12:05:08;;;;;;;2.50;1.10;;;;;;;;;;5011627;28;20283;-44
2022/06/03 12:07:35;;;;;;;2.08;1.25;;;;;;;;;;5011226;28;20307;-47
2022/06/03 12:10:11;;;;;;;2.10;1.40;;;;;;;;;;5011737;28;20208;-46
2022/06/03 12:15:31;;;;;;;1.33;1.23;;;;;;;;;;5012560;28;20232;-44
2022/06/03 12:17:58;;;;;;;2.35;1.00;;;;;;;;;;5013197;28;20649;-44
2022/06/03 12:20:30;;;;;;;1.88;1.13;;;;;;;;;;5014039;28;20202;-44
2022/06/03 12:23:17;;;;;;;2.05;1.33;;;;;;;;;;5014919;28;20213;-45
2022/06/03 12:25:51;;;;;;;1.23;1.13;;;;;;;;;;4995801;28;20531;-44
2022/06/03 12:28:25;;;;;;;1.77;1.20;;;;;;;;;;5014078;28;20204;-44
2022/06/03 12:31:03;;;;;;;1.48;1.20;;;;;;;;;;5014280;28;20197;-44
2022/06/03 12:33:33;;;;;;;5.50;1.50;;;;;;;;;;5013449;28;20225;-44
2022/06/03 12:36:07;;;;;;;1.50;1.30;;;;;;;;;;5014448;28;20221;-44
2022/06/03 12:38:43;;;;;;;2.50;1.20;;;;;;;;;;5045975;28;20692;-44
2022/06/03 12:41:11;;;;;;;2.13;1.40;;;;;;;;;;5015979;28;20209;-55
2022/06/03 12:43:44;;;;;;;1.55;1.38;;;;;;;;;;5007749;28;20233;-49
2022/06/03 12:46:38;;;;;;;5.50;1.90;;;;;;;;;;5016040;28;20225;-47
2022/06/03 12:49:23;;;;;;;5.03;1.70;;;;;;;;;;5021558;28;20312;-47
2022/06/03 12:52:05;;;;;;;3.08;1.70;;;;;;;;;;5011561;28;20233;-48
2022/06/03 12:54:34;;;;;;;2.75;2.00;;;;;;;;;;5016531;28;20229;-47
2022/06/03 12:57:08;;;;;;;2.10;1.40;;;;;;;;;;5004047;28;20239;-48
2022/06/03 12:59:52;;;;;;;1.88;1.10;;;;;;;;;;5015854;28;20235;-51
2022/06/03 13:02:24;;;;;;;3.13;1.40;;;;;;;;;;5016030;28;20225;-47
2022/06/03 13:04:54;;;;;;;5.05;1.48;;;;;;;;;;5015340;28;20633;-48
2022/06/03 13:07:34;;;;;;;2.25;1.27;;;;;;;;;;5016854;28;20731;-49
2022/06/03 13:10:04;;;;;;;3.70;1.33;;;;;;;;;;5016292;28;20591;-48
2022/06/03 13:12:31;;;;;;;1.30;1.20;;;;;;;;;;5016416;28;20299;-49
2022/06/03 13:15:16;;;;;;;15.18;2.22;;;;;;;;;;5016109;28;20229;-51
2022/06/03 13:18:12;;;;;;;2.00;1.13;;;;;;;;;;5016140;28;20244;-52
2022/06/03 13:20:39;;;;;;;1.95;1.20;;;;;;;;;;5016171;28;20256;-50
2022/06/03 13:23:32;;;;;;;1.65;1.40;;;;;;;;;;5016445;28;20233;-50
2022/06/03 13:26:18;;;;;;;2.92;1.40;;;;;;;;;;4979617;28;20238;-53
2022/06/03 13:28:45;;;;;;;2.20;1.35;;;;;;;;;;5015022;28;20291;-51
2022/06/03 13:31:19;;;;;;;2.88;1.00;;;;;;;;;;5016121;28;20221;-50
2022/06/03 13:33:58;;;;;;;3.35;1.27;;;;;;;;;;5015805;28;20228;-46
2022/06/03 13:36:33;;;;;;;1.83;1.30;;;;;;;;;;5016166;28;20256;-46
2022/06/03 13:39:01;;;;;;;4.50;1.45;;;;;;;;;;5015043;28;20229;-51
2022/06/03 13:44:48;;;;;;;1.00;0.88;;;;;;;;;;5015400;28;20233;-48
2022/06/03 13:47:18;;;;;;;1.35;1.17;;;;;;;;;;5014915;28;20230;-50
2022/06/03 13:50:08;;;;;;;1.25;1.00;;;;;;;;;;5015427;28;20241;-48
2022/06/03 13:52:38;;;;;;;3.22;1.38;;;;;;;;;;5001759;28;20237;-49
2022/06/03 13:55:05;;;;;;;8.60;1.25;;;;;;;;;;5014749;28;20229;-50
2022/06/03 13:57:38;;;;;;;1.90;1.25;;;;;;;;;;5015211;28;20312;-50
2022/06/03 14:00:21;;;;;;;1.95;0.95;;;;;;;;;;4995044;28;20248;-47
2022/06/03 14:02:52;;;;;;;2.05;1.17;;;;;;;;;;4995663;28;20226;-50
2022/06/03 14:05:43;;;;;;;2.72;1.00;;;;;;;;;;4995735;28;20668;-46
2022/06/03 14:08:18;;;;;;;1.45;1.00;;;;;;;;;;4994881;28;20264;-52
2022/06/03 14:11:01;;;;;;;2.08;1.10;;;;;;;;;;5027214;28;20229;-49
2022/06/03 14:14:07;;;;;;;2.22;1.23;;;;;;;;;;5012166;28;20247;-51
2022/06/03 14:16:49;;;;;;;2.33;1.30;;;;;;;;;;5014077;28;20228;-53
2022/06/03 14:19:28;;;;;;;3.03;1.10;;;;;;;;;;5015415;28;20553;-51
2022/06/03 14:22:44;;;;;;;4.53;1.10;;;;;;;;;;5015346;28;20225;-45
2022/06/03 14:25:23;;;;;;;2.28;0.90;;;;;;;;;;5015324;28;20245;-51
2022/06/03 14:28:06;;;;;;;3.03;1.08;;;;;;;;;;5014369;28;20233;-51
2022/06/03 14:30:51;;;;;;;1.05;0.88;;;;;;;;;;5014183;28;20225;-49
2022/06/03 14:33:20;;;;;;;2.47;1.50;;;;;;;;;;5014187;28;20638;-48
2022/06/03 14:35:51;;;;;;;2.85;1.08;;;;;;;;;;5013795;28;20664;-49
2022/06/03 14:38:35;;;;;;;1.90;1.05;;;;;;;;;;5014087;28;20243;-50
2022/06/03 14:41:06;;;;;;;2.45;1.33;;;;;;;;;;5014089;28;20229;-43
2022/06/03 14:43:34;;;;;;;4.00;1.00;;;;;;;;;;5013669;28;20639;-46
2022/06/03 14:46:16;;;;;;;1.20;1.02;;;;;;;;;;5013843;28;20226;-44
2022/06/03 14:48:49;;;;;;;1.98;1.10;;;;;;;;;;5014585;28;20221;-43
2022/06/03 14:51:32;;;;;;;0.93;0.82;;;;;;;;;;5014692;28;20324;-43
2022/06/03 14:54:08;;;;;;;6.25;1.40;;;;;;;;;;5014107;28;20229;-53
2022/06/03 14:56:40;;;;;;;1.10;1.00;;;;;;;;;;5012849;28;20240;-46
2022/06/03 14:59:17;;;;;;;1.42;1.10;;;;;;;;;;5021217;28;20679;-45
2022/06/03 15:02:02;;;;;;;4.97;1.13;;;;;;;;;;5034212;28;20289;-44
2022/06/03 15:04:44;;;;;;;16.42;1.70;;;;;;;;;;5012260;28;20256;-44
2022/06/03 15:07:20;;;;;;;2.78;0.90;;;;;;;;;;5014407;28;20237;-47
2022/06/03 15:09:50;;;;;;;3.08;0.85;;;;;;;;;;5014023;28;20668;-47
2022/06/03 15:12:25;;;;;;;1.35;1.00;;;;;;;;;;5013563;28;20233;-48
2022/06/03 15:14:53;;;;;;;1.67;1.00;;;;;;;;;;5014299;28;20225;-46
2022/06/03 15:17:33;;;;;;;2.58;1.23;;;;;;;;;;5014418;28;20243;-47
2022/06/03 15:20:14;;;;;;;3.55;1.10;;;;;;;;;;5015300;28;20247;-46
2022/06/03 15:22:47;;;;;;;2.17;1.10;;;;;;;;;;5015245;28;20499;-48
2022/06/03 15:25:19;;;;;;;1.60;1.00;;;;;;;;;;5014193;28;20536;-46
2022/06/03 15:27:57;;;;;;;3.80;1.30;;;;;;;;;;5015205;28;20217;-48
2022/06/03 15:30:27;;;;;;;3.47;1.13;;;;;;;;;;5006119;28;20243;-45
2022/06/03 15:32:58;;;;;;;1.50;1.20;;;;;;;;;;5014187;28;20287;-46
2022/06/03 15:35:30;;;;;;;3.78;1.30;;;;;;;;;;5014137;28;20233;-44
2022/06/03 15:37:59;;;;;;;1.52;1.00;;;;;;;;;;5013871;28;20674;-43
2022/06/03 15:40:35;;;;;;;3.88;1.75;;;;;;;;;;5014020;28;20217;-44
2022/06/03 15:43:07;;;;;;;2.05;1.40;;;;;;;;;;5013997;28;20575;-43
2022/06/03 15:45:34;;;;;;;2.17;1.00;;;;;;;;;;5013853;28;20225;-43
2022/06/03 15:48:19;;;;;;;8.60;1.42;;;;;;;;;;5014164;28;20249;-44
2022/06/03 15:51:03;;;;;;;1.63;1.17;;;;;;;;;;5013821;28;20688;-44
2022/06/03 15:53:36;;;;;;;4.32;1.20;;;;;;;;;;5014277;28;20724;-44
2022/06/03 15:56:32;;;;;;;1.73;0.80;;;;;;;;;;5014840;28;20202;-44
2022/06/03 15:59:31;;;;;;;2.25;0.90;;;;;;;;;;5015136;28;20225;-44
2022/06/03 16:02:05;;;;;;;2.15;1.63;;;;;;;;;;4979125;28;20210;-44
2022/06/03 16:04:52;;;;;;;5.03;1.40;;;;;;;;;;5015041;28;20194;-44
2022/06/03 16:07:26;;;;;;;1.50;0.98;;;;;;;;;;5014191;28;20237;-46
2022/06/03 16:10:12;;;;;;;1.00;0.90;;;;;;;;;;5014521;28;20285;-45
2022/06/03 16:13:19;;;;;;;5.80;1.33;;;;;;;;;;5013498;28;20233;-44
2022/06/03 16:16:08;;;;;;;2.40;1.20;;;;;;;;;;5016973;28;20300;-46
2022/06/03 16:19:01;;;;;;;9.93;1.25;;;;;;;;;;5018174;28;20185;-44
2022/06/03 16:21:27;;;;;;;3.50;1.10;;;;;;;;;;5018456;28;20275;-47
2022/06/03 16:24:26;;;;;;;2.00;1.05;;;;;;;;;;5018376;28;20209;-46
2022/06/03 16:27:37;;;;;;;3.20;1.20;;;;;;;;;;5004160;28;20235;-44
2022/06/03 16:30:10;;;;;;;5.30;1.00;;;;;;;;;;4975887;28;20207;-45
2022/06/03 16:32:43;;;;;;;2.53;1.00;;;;;;;;;;4952730;28;20238;-45
2022/06/03 16:35:35;;;;;;;2.03;1.00;;;;;;;;;;4975751;28;20202;-46
2022/06/03 16:38:19;;;;;;;2.33;1.13;;;;;;;;;;4974981;28;20202;-45
2022/06/03 16:41:01;;;;;;;1.90;1.20;;;;;;;;;;4961197;28;20210;-47